createdAt,value
2023-02-18T00:01:34.901Z,1.00
2023-02-18T00:04:01.912Z,1.50
2023-02-18T00:06:34.081Z,0.75
2023-02-18T00:09:02.608Z,0.25
2023-02-18T00:11:32.315Z,2.25
2023-02-18T00:14:02.449Z,1.75
2023-02-18T00:16:31.058Z,1.00
2023-02-18T00:19:03.571Z,1.50
2023-02-18T00:21:32.725Z,2.00
2023-02-18T00:23:59.904Z,2.00
2023-02-18T00:26:27.654Z,3.00
2023-02-18T00:28:54.942Z,2.25
2023-02-18T00:31:25.740Z,1.50
2023-02-18T00:33:53.324Z,2.00
2023-02-18T00:36:23.331Z,1.75
2023-02-18T00:38:54.946Z,3.25
2023-02-18T00:41:24.740Z,2.00
2023-02-18T00:43:51.915Z,1.75
2023-02-18T00:46:20.388Z,1.75
2023-02-18T00:48:47.957Z,1.00
2023-02-18T00:51:14.967Z,1.00
2023-02-18T00:53:43.619Z,2.50
2023-02-18T00:56:10.926Z,2.00
2023-02-18T00:58:38.540Z,2.00
2023-02-18T01:01:07.938Z,1.50
2023-02-18T01:03:35.111Z,3.00
2023-02-18T01:06:02.568Z,2.75
2023-02-18T01:08:30.237Z,0.75
2023-02-18T01:11:13.802Z,2.25
2023-02-18T01:13:41.700Z,3.00
2023-02-18T01:16:09.719Z,2.00
2023-02-18T01:18:37.495Z,1.00
2023-02-18T01:21:05.663Z,1.75
2023-02-18T01:23:32.511Z,1.00
2023-02-18T01:25:59.542Z,2.00
2023-02-18T01:28:27.691Z,2.50
2023-02-18T01:30:55.026Z,3.00
2023-02-18T01:33:22.662Z,0.00
2023-02-18T01:35:52.112Z,1.75
2023-02-18T01:38:19.002Z,1.25
2023-02-18T01:40:51.754Z,2.25
2023-02-18T01:43:20.594Z,3.00
2023-02-18T01:46:00.700Z,2.00
2023-02-18T01:48:35.342Z,2.25
2023-02-18T01:51:11.345Z,1.25
2023-02-18T01:53:49.133Z,2.50
2023-02-18T01:56:26.756Z,4.50
2023-02-18T01:59:00.278Z,2.00
2023-02-18T02:01:29.153Z,3.00
2023-02-18T02:03:56.009Z,1.75
2023-02-18T02:06:25.326Z,1.25
2023-02-18T02:08:58.848Z,3.75
2023-02-18T02:12:06.180Z,2.00
2023-02-18T02:14:56.876Z,1.50
2023-02-18T02:17:39.814Z,2.00
2023-02-18T02:20:57.957Z,2.75
2023-02-18T02:24:08.998Z,5.00
2023-02-18T02:27:15.017Z,2.00
2023-02-18T02:30:35.325Z,3.00
2023-02-18T02:33:37.776Z,1.25
2023-02-18T02:36:14.428Z,2.25
2023-02-18T02:38:56.289Z,3.25
2023-02-18T02:41:42.362Z,1.50
2023-02-18T02:44:21.213Z,3.00
2023-02-18T02:46:55.238Z,2.75
2023-02-18T02:49:38.060Z,1.25
2023-02-18T02:52:15.121Z,3.00
2023-02-18T02:54:42.355Z,3.25
2023-02-18T02:57:45.340Z,2.25
2023-02-18T03:00:21.785Z,2.75
2023-02-18T03:03:29.803Z,2.75
2023-02-18T03:06:23.527Z,3.25
2023-02-18T03:09:06.805Z,1.75
2023-02-18T03:11:47.154Z,3.00
2023-02-18T03:14:28.584Z,3.75
2023-02-18T03:17:04.882Z,3.25
2023-02-18T03:19:38.434Z,1.75
2023-02-18T03:22:13.424Z,3.25
2023-02-18T03:24:46.539Z,3.00
2023-02-18T03:27:21.627Z,2.25
2023-02-18T03:29:57.583Z,4.00
2023-02-18T03:32:35.538Z,3.00
2023-02-18T03:35:09.105Z,3.00
2023-02-18T03:37:43.741Z,2.50
2023-02-18T03:40:13.764Z,2.50
2023-02-18T03:42:40.862Z,2.50
2023-02-18T03:45:08.289Z,4.00
2023-02-18T03:47:35.667Z,4.00
2023-02-18T03:50:02.587Z,3.00
2023-02-18T03:52:29.527Z,3.25
2023-02-18T03:54:56.360Z,2.50
2023-02-18T03:57:24.547Z,3.00
2023-02-18T03:59:51.324Z,4.25
2023-02-18T04:02:18.393Z,3.50
2023-02-18T04:04:45.276Z,3.75
2023-02-18T04:07:12.505Z,3.75
2023-02-18T04:09:59.456Z,3.00
2023-02-18T04:12:27.701Z,3.75
2023-02-18T04:14:55.019Z,3.75
2023-02-18T04:17:21.910Z,2.00
2023-02-18T07:00:57.822Z,3.00
2023-02-18T07:03:26.243Z,2.00
2023-02-18T07:05:53.092Z,7.25
2023-02-18T07:08:19.963Z,5.25
2023-02-18T07:10:46.946Z,3.75
2023-02-18T07:13:14.212Z,1.50
2023-02-18T07:15:41.347Z,3.00
2023-02-18T07:18:08.201Z,2.75
2023-02-18T07:20:36.501Z,3.00
2023-02-18T07:23:03.330Z,2.25
2023-02-18T07:25:30.326Z,8.50
2023-02-18T07:27:57.104Z,3.25
2023-02-18T07:30:24.366Z,7.25
2023-02-18T07:32:51.217Z,4.00
2023-02-18T07:35:18.578Z,2.25
2023-02-18T07:37:48.348Z,2.00
2023-02-18T07:40:19.634Z,2.25
2023-02-18T07:42:46.712Z,2.75
2023-02-18T07:45:14.715Z,0.00
2023-02-18T07:47:41.860Z,3.25
2023-02-18T07:50:10.455Z,1.75
2023-02-18T07:52:37.371Z,2.25
2023-02-18T07:55:06.524Z,3.00
2023-02-18T07:57:33.363Z,2.50
2023-02-18T08:00:00.302Z,1.50
2023-02-18T08:02:27.455Z,1.00
2023-02-18T08:04:54.953Z,2.00
2023-02-18T08:07:29.116Z,2.00
2023-02-18T08:09:55.962Z,1.00
2023-02-18T08:12:24.150Z,1.75
2023-02-18T08:19:24.819Z,1.25
2023-02-18T08:21:51.763Z,2.00
2023-02-18T08:24:18.807Z,3.00
2023-02-18T08:26:59.399Z,2.00
2023-02-18T08:29:29.730Z,1.00
2023-02-18T08:31:57.020Z,2.25
2023-02-18T08:34:49.843Z,1.00
2023-02-18T08:37:16.878Z,1.25
2023-02-18T08:39:43.944Z,3.00
2023-02-18T08:42:13.073Z,1.75
2023-02-18T08:44:52.099Z,2.50
2023-02-18T08:48:18.330Z,1.75
2023-02-18T08:53:37.581Z,1.25
2023-02-18T08:56:07.877Z,2.00
2023-02-18T08:58:35.243Z,1.75
2023-02-18T09:01:05.625Z,2.00
2023-02-18T09:03:33.184Z,1.50
2023-02-18T09:06:01.645Z,2.00
2023-02-18T09:08:29.137Z,2.00
2023-02-18T09:10:57.543Z,0.00
2023-02-18T09:13:25.587Z,0.50
2023-02-18T09:16:01.195Z,2.25
2023-02-18T09:18:29.905Z,1.75
2023-02-18T09:21:09.092Z,2.00
2023-02-18T09:23:36.715Z,2.00
2023-02-18T09:26:06.446Z,1.50
2023-02-18T09:28:33.757Z,2.00
2023-02-18T09:31:05.775Z,2.00
2023-02-18T09:33:36.974Z,1.50
2023-02-18T09:36:05.053Z,1.50
2023-02-18T09:38:34.624Z,2.00
2023-02-18T09:41:07.541Z,1.50
2023-02-18T09:43:41.215Z,1.00
2023-02-18T09:46:23.718Z,1.75
2023-02-18T09:48:53.847Z,1.50
2023-02-18T09:51:20.807Z,2.00
2023-02-18T09:53:48.114Z,0.75
2023-02-18T09:56:22.610Z,2.00
2023-02-18T09:58:50.883Z,1.50
2023-02-18T10:01:28.161Z,1.00
2023-02-18T10:04:01.317Z,0.25
2023-02-18T10:06:32.975Z,1.50
2023-02-18T10:09:04.637Z,2.00
2023-02-18T10:11:39.922Z,1.75
2023-02-18T10:14:13.745Z,2.00
2023-02-18T10:16:43.650Z,1.25
2023-02-18T10:19:24.189Z,0.75
2023-02-18T10:21:53.264Z,1.25
2023-02-18T10:24:30.522Z,1.00
2023-02-18T10:26:59.563Z,1.25
2023-02-18T10:29:28.362Z,1.00
2023-02-18T10:32:16.549Z,1.50
2023-02-18T10:35:00.318Z,1.75
2023-02-18T10:37:55.926Z,0.75
2023-02-18T10:45:45.528Z,1.00
2023-02-18T10:49:04.818Z,0.75
2023-02-18T10:51:37.508Z,1.75
2023-02-18T10:54:07.609Z,1.50
2023-02-18T10:56:40.502Z,3.00
2023-02-18T10:59:13.501Z,1.25
2023-02-18T11:01:43.356Z,1.00
2023-02-18T11:04:18.250Z,2.00
2023-02-18T11:06:50.963Z,1.00
2023-02-18T11:09:34.941Z,2.00
2023-02-18T11:12:08.754Z,1.00
2023-02-18T11:14:41.256Z,1.00
2023-02-18T11:17:17.039Z,2.00
2023-02-18T11:19:51.246Z,1.00
2023-02-18T11:22:24.633Z,0.75
2023-02-18T11:24:56.269Z,2.25
2023-02-18T11:27:30.897Z,1.50
2023-02-18T11:30:04.423Z,1.00
2023-02-18T11:32:36.745Z,1.00
2023-02-18T11:35:05.300Z,2.00
2023-02-18T11:37:37.804Z,1.25
2023-02-18T11:40:06.840Z,0.00
2023-02-18T11:42:34.407Z,1.00
2023-02-18T11:45:02.443Z,1.25
2023-02-18T11:47:35.356Z,2.50
2023-02-18T11:50:17.619Z,2.25
2023-02-18T11:52:48.876Z,2.75
2023-02-18T11:55:20.625Z,2.00
2023-02-18T11:57:55.877Z,2.75
2023-02-18T12:00:38.754Z,2.25
2023-02-18T12:03:22.581Z,2.75
2023-02-18T12:05:50.430Z,2.50
2023-02-18T12:08:27.371Z,3.00
2023-02-18T12:11:01.105Z,3.50
2023-02-18T12:13:36.845Z,2.50
2023-02-18T12:16:20.469Z,3.75
2023-02-18T12:19:26.260Z,3.00
2023-02-18T12:22:05.581Z,0.00
2023-02-18T12:24:56.279Z,5.00
2023-02-18T12:27:35.811Z,3.25
2023-02-18T12:30:34.204Z,2.25
2023-02-18T12:33:13.013Z,2.25
2023-02-18T12:36:24.986Z,4.25
2023-02-18T12:39:09.001Z,3.75
2023-02-18T12:46:22.930Z,4.00
2023-02-18T12:49:09.682Z,2.75
2023-02-18T12:51:52.933Z,2.50
2023-02-18T12:55:03.781Z,2.50
2023-02-18T12:57:45.634Z,3.25
2023-02-18T13:00:43.637Z,3.00
2023-02-18T13:04:06.522Z,2.00
2023-02-18T13:07:10.876Z,2.50
2023-02-18T13:10:48.212Z,3.25
2023-02-18T13:13:22.184Z,3.00
2023-02-18T13:15:55.354Z,3.50
2023-02-18T13:18:30.097Z,2.00
2023-02-18T13:21:05.567Z,3.75
2023-02-18T13:23:39.001Z,2.25
2023-02-18T13:26:12.635Z,4.25
2023-02-18T13:28:52.198Z,3.00
2023-02-18T13:31:36.187Z,4.00
2023-02-18T13:34:18.001Z,4.25
2023-02-18T13:37:03.197Z,1.00
2023-02-18T13:39:32.130Z,4.00
2023-02-18T13:42:35.721Z,3.25
2023-02-18T13:45:25.553Z,2.75
2023-02-18T13:47:54.614Z,0.00
2023-02-18T13:50:41.759Z,3.25
2023-02-18T13:53:28.616Z,3.75
2023-02-18T13:56:04.808Z,3.75
2023-02-18T13:58:41.645Z,3.00
2023-02-18T14:01:36.288Z,3.00
2023-02-18T14:04:34.503Z,3.75
2023-02-18T14:07:51.305Z,4.75
2023-02-18T14:10:33.145Z,4.00
2023-02-18T14:13:47.013Z,4.00
2023-02-18T14:16:20.160Z,2.00
2023-02-18T14:19:29.159Z,2.00
2023-02-18T14:22:27.160Z,3.25
2023-02-18T14:25:03.021Z,2.25
2023-02-18T14:27:29.944Z,2.00
2023-02-18T14:30:05.661Z,2.25
2023-02-18T14:32:34.922Z,3.00
2023-02-18T14:35:25.386Z,3.00
2023-02-18T14:38:42.573Z,2.25
2023-02-18T14:41:43.780Z,3.00
2023-02-18T14:44:43.047Z,2.25
2023-02-18T14:47:28.506Z,2.00
2023-02-18T14:50:01.028Z,1.00
2023-02-18T14:53:17.608Z,2.25
2023-02-18T14:55:48.800Z,1.25
2023-02-18T14:58:30.550Z,2.75
2023-02-18T15:00:57.776Z,3.00
2023-02-18T15:03:28.397Z,1.00
2023-02-18T15:05:56.956Z,2.75
2023-02-18T15:08:26.051Z,3.00
2023-02-18T15:11:01.525Z,3.50
2023-02-18T15:13:33.376Z,1.75
2023-02-18T15:16:09.000Z,0.00
2023-02-18T15:18:44.750Z,3.25
2023-02-18T15:21:24.530Z,1.50
2023-02-18T15:24:07.150Z,1.25
2023-02-18T15:26:48.683Z,2.50
2023-02-18T15:29:37.335Z,2.00
2023-02-18T15:32:16.500Z,1.00
2023-02-18T15:35:20.005Z,1.00
2023-02-18T15:37:58.456Z,1.00
2023-02-18T15:40:31.518Z,1.00
2023-02-18T15:43:22.300Z,2.25
2023-02-18T15:50:03.180Z,2.00
2023-02-18T15:52:33.634Z,1.00
2023-02-18T15:55:07.847Z,1.00
2023-02-18T15:57:37.559Z,3.00
2023-02-18T16:00:16.667Z,1.75
2023-02-18T16:02:55.770Z,1.25
2023-02-18T16:05:27.412Z,1.00
2023-02-18T16:08:01.766Z,2.00
2023-02-18T16:10:55.950Z,1.75
2023-02-18T16:13:26.436Z,2.00
2023-02-18T16:15:54.066Z,1.25
2023-02-18T16:18:37.901Z,1.00
2023-02-18T16:21:24.283Z,2.00
2023-02-18T16:23:55.076Z,3.00
2023-02-18T16:26:31.607Z,2.00
2023-02-18T16:29:13.851Z,1.50
2023-02-18T16:31:41.859Z,2.25
2023-02-18T16:34:09.072Z,0.00
2023-02-18T16:36:35.947Z,1.75
2023-02-18T16:39:03.204Z,2.75
2023-02-18T16:41:31.815Z,1.00
2023-02-18T16:43:58.866Z,1.00
2023-02-18T16:46:25.934Z,1.75
2023-02-18T16:48:55.363Z,2.50
2023-02-18T16:51:29.164Z,3.50
2023-02-18T16:53:56.818Z,2.50
2023-02-18T16:56:27.036Z,2.00
2023-02-18T16:58:55.392Z,3.25
2023-02-18T17:01:27.213Z,4.25
2023-02-18T17:03:55.125Z,2.00
2023-02-18T17:06:22.260Z,3.50
2023-02-18T17:08:51.744Z,2.00
2023-02-18T17:11:22.740Z,2.25
2023-02-18T17:13:50.645Z,9.75
2023-02-18T17:16:20.494Z,5.50
2023-02-18T17:18:47.864Z,3.00
2023-02-18T17:21:16.589Z,3.00
2023-02-18T17:23:44.842Z,2.00
2023-02-18T17:26:17.575Z,1.50
2023-02-18T17:28:44.551Z,3.50
2023-02-18T17:31:17.148Z,3.00
2023-02-18T17:33:46.840Z,4.25
2023-02-18T17:36:13.919Z,3.50
2023-02-18T17:38:41.110Z,2.00
2023-02-18T17:41:08.252Z,4.33
2023-02-18T17:43:35.167Z,5.25
2023-02-18T17:46:02.648Z,3.75
2023-02-18T17:48:30.313Z,3.00
2023-02-18T17:50:58.587Z,3.00
2023-02-18T17:53:25.438Z,3.25
2023-02-18T17:55:53.822Z,4.33
2023-02-18T17:58:20.776Z,1.00
2023-02-18T18:00:51.411Z,2.00
2023-02-18T18:03:19.102Z,2.00
2023-02-18T18:05:49.236Z,3.00
2023-02-18T18:08:18.216Z,3.75
2023-02-18T18:10:51.046Z,3.33
2023-02-18T18:13:23.286Z,3.50
2023-02-18T18:15:51.811Z,4.67
2023-02-18T18:18:20.057Z,3.25
2023-02-18T18:20:53.006Z,3.00
2023-02-18T18:23:22.518Z,3.00
2023-02-18T18:25:53.722Z,3.00
2023-02-18T18:28:20.687Z,3.67
2023-02-18T18:30:51.521Z,4.67
2023-02-18T18:33:21.630Z,7.33
2023-02-18T18:35:52.148Z,4.00
2023-02-18T18:38:24.620Z,8.33
2023-02-18T18:40:55.211Z,4.00
2023-02-18T18:43:25.377Z,16.75
2023-02-18T18:45:53.741Z,11.25
2023-02-18T18:48:27.771Z,8.33
2023-02-18T18:50:58.819Z,13.75
2023-02-18T18:53:30.525Z,8.33
2023-02-18T18:56:01.116Z,6.00
2023-02-18T18:58:28.265Z,7.00
2023-02-18T19:00:59.200Z,7.33
2023-02-18T19:03:28.436Z,7.00
2023-02-18T19:05:56.517Z,8.00
2023-02-18T19:08:24.418Z,6.00
2023-02-18T19:10:55.836Z,6.33
2023-02-18T19:13:26.474Z,8.25
2023-02-18T19:16:02.984Z,6.67
2023-02-18T19:18:30.579Z,7.00
2023-02-18T19:20:57.374Z,7.00
2023-02-18T19:23:24.327Z,6.33
2023-02-18T19:25:52.828Z,10.00
2023-02-18T19:28:20.813Z,10.25
2023-02-18T19:30:50.347Z,6.00
2023-02-18T19:33:18.008Z,7.00
2023-02-18T19:35:45.712Z,4.00
2023-02-18T19:38:15.490Z,3.00
2023-02-18T19:40:44.596Z,4.67
2023-02-18T19:43:13.657Z,4.67
2023-02-18T19:45:42.994Z,6.00
2023-02-18T19:48:11.620Z,3.67
2023-02-18T19:50:41.075Z,8.50
2023-02-18T19:53:08.440Z,6.67
2023-02-18T19:55:35.425Z,4.00
2023-02-18T19:58:02.282Z,3.00
2023-02-18T20:00:30.602Z,2.00
2023-02-18T20:02:58.150Z,7.00
2023-02-18T20:05:27.186Z,5.67
2023-02-18T20:07:54.068Z,4.00
2023-02-18T20:10:22.286Z,3.00
2023-02-18T20:12:52.943Z,5.33
2023-02-18T20:15:20.382Z,5.67
2023-02-18T20:17:53.641Z,9.75
2023-02-18T20:20:20.853Z,7.67
2023-02-18T20:22:47.781Z,7.25
2023-02-18T20:25:15.034Z,2.00
2023-02-18T20:27:58.264Z,6.67
2023-02-18T20:30:27.169Z,3.00
2023-02-18T20:32:57.013Z,3.00
2023-02-18T20:35:24.606Z,4.67
2023-02-18T20:37:51.768Z,2.00
2023-02-18T20:40:19.302Z,3.00
2023-02-18T20:42:51.297Z,4.00
2023-02-18T20:45:18.334Z,3.00
2023-02-18T20:47:45.254Z,3.00
2023-02-18T20:50:14.681Z,4.33
2023-02-18T20:52:41.564Z,6.00
2023-02-18T20:55:09.072Z,5.67
2023-02-18T20:57:36.376Z,4.67
2023-02-18T21:00:05.413Z,6.33
2023-02-18T21:02:32.357Z,3.00
2023-02-18T21:05:00.936Z,5.67
2023-02-18T21:07:29.319Z,5.67
2023-02-18T21:09:58.085Z,6.00
2023-02-18T21:12:27.602Z,5.33
2023-02-18T21:14:54.513Z,5.50
2023-02-18T21:17:21.381Z,7.25
2023-02-18T21:19:49.000Z,4.33
2023-02-18T21:22:15.899Z,5.00
2023-02-18T21:24:44.522Z,5.00
2023-02-18T21:27:11.366Z,8.75
2023-02-18T21:29:38.324Z,8.25
2023-02-18T21:32:05.475Z,6.50
2023-02-18T21:34:32.411Z,7.50
2023-02-18T21:36:59.247Z,7.00
2023-02-18T21:39:26.183Z,8.00
2023-02-18T21:41:54.585Z,7.75
2023-02-18T21:44:25.023Z,7.00
2023-02-18T21:46:56.889Z,7.00
2023-02-18T21:49:23.800Z,5.00
2023-02-18T21:51:52.184Z,5.75
2023-02-18T21:54:22.813Z,5.50
2023-02-18T21:56:51.320Z,7.25
2023-02-18T21:59:22.077Z,8.00
2023-02-18T22:01:56.148Z,5.75
2023-02-18T22:04:23.776Z,5.75
2023-02-18T22:06:50.758Z,5.25
2023-02-18T22:09:18.002Z,8.75
2023-02-18T22:11:45.257Z,9.50
2023-02-18T22:14:14.756Z,13.50
2023-02-18T22:16:44.185Z,17.75
2023-02-18T22:19:12.170Z,11.50
2023-02-18T22:21:39.109Z,11.50
2023-02-18T22:24:07.410Z,9.50
2023-02-18T22:26:34.621Z,7.00
2023-02-18T22:29:02.092Z,9.75
2023-02-18T22:31:31.518Z,14.25
2023-02-18T22:34:00.945Z,11.25
2023-02-18T22:36:29.317Z,15.75
2023-02-18T22:38:58.278Z,11.25
2023-02-18T22:41:27.472Z,9.25
2023-02-18T22:43:55.935Z,13.50
2023-02-18T22:46:23.455Z,14.00
2023-02-18T22:48:50.481Z,11.50
2023-02-18T22:51:22.740Z,11.25
2023-02-18T22:53:49.517Z,8.00
2023-02-18T22:56:19.407Z,7.50
2023-02-18T22:58:49.624Z,11.50
2023-02-18T23:01:22.424Z,6.00
2023-02-18T23:03:49.905Z,5.25
2023-02-18T23:06:20.562Z,6.50
2023-02-18T23:08:48.698Z,5.75
2023-02-18T23:11:18.987Z,7.50
2023-02-18T23:13:47.383Z,6.00
2023-02-18T23:16:15.138Z,7.00
2023-02-18T23:18:42.092Z,7.00
2023-02-18T23:21:15.513Z,7.50
2023-02-18T23:23:44.865Z,6.00
2023-02-18T23:26:12.560Z,6.00
2023-02-18T23:28:41.198Z,5.50
2023-02-18T23:31:09.068Z,5.50
2023-02-18T23:33:36.873Z,2.00
2023-02-18T23:36:10.337Z,6.25
2023-02-18T23:38:37.541Z,6.75
2023-02-18T23:41:07.330Z,4.25
2023-02-18T23:43:34.679Z,5.00
2023-02-18T23:46:01.630Z,5.50
2023-02-18T23:48:28.700Z,2.00
2023-02-18T23:51:00.310Z,4.00
2023-02-18T23:53:30.185Z,4.00
2023-02-18T23:56:07.344Z,6.00
2023-02-18T23:58:40.086Z,4.75
